Time;durP1;ratioP1;P1;durP2;ratioP2;P2;SDS_P1;SDS_P2;PMS_P1;PMS_P2;Temp;Humidity;BMP_temperature;BMP_pressure;BME280_temperature;BME280_humidity;BME280_pressure;Samples;Min_cycle;Max_cycle;Signal;HPM_P1;HPM_P2
2022/08/20 00:00:16;;;;;;;;;;;;;;;;;;5000993;28;19921;-60
2022/08/20 00:02:41;;;;;;;;;;;;;;;;;;4993910;28;19924;-60
2022/08/20 00:05:09;;;;;;;;;;;;;;;;;;5024467;28;20012;-61
2022/08/20 00:07:34;;;;;;;;;;;;;;;;;;4998407;28;19948;-60
2022/08/20 00:10:02;;;;;;;;;;;;;;;;;;4995106;28;19918;-60
2022/08/20 00:12:30;;;;;;;;;;;;;;;;;;4996007;28;19959;-61
2022/08/20 00:14:55;;;;;;;;;;;;;;;;;;4995925;28;20588;-59
2022/08/20 00:17:21;;;;;;;;;;;;;;;;;;4991785;28;19917;-61
2022/08/20 00:19:49;;;;;;;;;;;;;;;;;;4994034;28;19921;-61
2022/08/20 00:22:14;;;;;;;;;;;;;;;;;;4996127;28;20430;-60
2022/08/20 00:24:40;;;;;;;;;;;;;;;;;;4995424;28;19925;-60
2022/08/20 00:27:07;;;;;;;;;;;;;;;;;;4994579;28;20672;-59
2022/08/20 00:29:35;;;;;;;;;;;;;;;;;;4997111;28;19929;-60
2022/08/20 00:32:03;;;;;;;;;;;;;;;;;;4995949;28;19986;-60
2022/08/20 00:34:30;;;;;;;;;;;;;;;;;;4992131;28;19947;-60
2022/08/20 00:36:58;;;;;;;;;;;;;;;;;;5026454;28;19991;-60
2022/08/20 00:39:26;;;;;;;;;;;;;;;;;;4995058;28;20560;-60
2022/08/20 00:41:52;;;;;;;;;;;;;;;;;;4994951;28;20004;-60
2022/08/20 00:44:17;;;;;;;;;;;;;;;;;;4978815;28;19940;-59
2022/08/20 00:46:42;;;;;;;;;;;;;;;;;;4993663;28;19917;-60
2022/08/20 00:49:11;;;;;;;;;;;;;;;;;;4994689;28;19952;-61
2022/08/20 00:51:39;;;;;;;;;;;;;;;;;;5001750;28;19921;-61
2022/08/20 00:54:05;;;;;;;;;;;;;;;;;;4994612;28;19922;-61
2022/08/20 00:56:32;;;;;;;;;;;;;;;;;;4996431;28;19917;-61
2022/08/20 00:58:58;;;;;;;;;;;;;;;;;;4992929;28;20071;-61
2022/08/20 01:01:26;;;;;;;;;;;;;;;;;;4995684;28;19980;-61
2022/08/20 01:03:55;;;;;;;;;;;;;;;;;;4996630;28;20299;-60
2022/08/20 01:06:20;;;;;;;;;;;;;;;;;;5013464;28;20047;-61
2022/08/20 01:08:46;;;;;;;;;;;;;;;;;;4995358;28;20435;-59
2022/08/20 01:11:21;;;;;;;;;;;;;;;;;;4995612;28;19917;-59
2022/08/20 01:13:46;;;;;;;;;;;;;;;;;;4995577;28;20269;-61
2022/08/20 01:16:12;;;;;;;;;;;;;;;;;;5027901;28;19932;-60
2022/08/20 01:18:39;;;;;;;;;;;;;;;;;;4991465;28;19921;-60
2022/08/20 01:21:04;;;;;;;;;;;;;;;;;;5026243;28;20004;-60
2022/08/20 01:23:33;;;;;;;;;;;;;;;;;;4998782;28;19964;-59
2022/08/20 01:26:02;;;;;;;;;;;;;;;;;;4995912;28;19932;-60
2022/08/20 01:28:28;;;;;;;;;;;;;;;;;;4996423;28;19967;-61
2022/08/20 01:30:53;;;;;;;;;;;;;;;;;;4991626;28;19929;-60
2022/08/20 01:33:19;;;;;;;;;;;;;;;;;;4998666;28;19975;-59
2022/08/20 01:35:44;;;;;;;;;;;;;;;;;;4995226;28;19921;-60
2022/08/20 01:38:09;;;;;;;;;;;;;;;;;;4982731;28;19928;-60
2022/08/20 01:40:35;;;;;;;;;;;;;;;;;;4996606;28;20832;-59
2022/08/20 01:43:01;;;;;;;;;;;;;;;;;;4981751;28;19921;-59
2022/08/20 01:45:27;;;;;;;;;;;;;;;;;;4989705;28;19996;-59
2022/08/20 01:47:52;;;;;;;;;;;;;;;;;;4995400;28;20067;-60
2022/08/20 01:50:17;;;;;;;;;;;;;;;;;;4994401;28;20012;-59
2022/08/20 01:52:43;;;;;;;;;;;;;;;;;;4993639;28;19964;-59
2022/08/20 01:55:11;;;;;;;;;;;;;;;;;;4996092;28;19925;-61
2022/08/20 01:57:37;;;;;;;;;;;;;;;;;;4998271;28;19917;-60
2022/08/20 02:00:02;;;;;;;;;;;;;;;;;;5029111;28;20435;-60
2022/08/20 02:02:29;;;;;;;;;;;;;;;;;;5027675;28;19933;-60
2022/08/20 02:04:59;;;;;;;;;;;;;;;;;;5003044;28;19929;-60
2022/08/20 02:07:27;;;;;;;;;;;;;;;;;;4981674;28;19926;-60
2022/08/20 02:09:55;;;;;;;;;;;;;;;;;;5028375;28;19964;-60
2022/08/20 02:12:20;;;;;;;;;;;;;;;;;;4996956;28;22079;-58
2022/08/20 02:14:45;;;;;;;;;;;;;;;;;;4996275;28;19921;-61
2022/08/20 02:17:13;;;;;;;;;;;;;;;;;;4997219;28;19921;-61
2022/08/20 02:19:39;;;;;;;;;;;;;;;;;;4993970;28;19924;-61
2022/08/20 02:22:05;;;;;;;;;;;;;;;;;;5029644;28;19925;-60
2022/08/20 02:24:31;;;;;;;;;;;;;;;;;;4995585;28;19932;-60
2022/08/20 02:26:56;;;;;;;;;;;;;;;;;;4999008;28;19921;-61
2022/08/20 02:29:24;;;;;;;;;;;;;;;;;;5026451;28;20092;-61
2022/08/20 02:31:53;;;;;;;;;;;;;;;;;;4997470;28;19955;-61
2022/08/20 02:34:21;;;;;;;;;;;;;;;;;;4998457;28;19956;-61
2022/08/20 02:36:49;;;;;;;;;;;;;;;;;;4996843;28;19921;-61
2022/08/20 02:39:15;;;;;;;;;;;;;;;;;;5027237;28;19967;-59
2022/08/20 02:41:40;;;;;;;;;;;;;;;;;;4996641;28;20010;-60
2022/08/20 02:44:06;;;;;;;;;;;;;;;;;;4994329;28;19952;-60
2022/08/20 02:46:34;;;;;;;;;;;;;;;;;;4999059;28;19917;-60
2022/08/20 02:48:59;;;;;;;;;;;;;;;;;;4993442;28;19921;-59
2022/08/20 02:51:25;;;;;;;;;;;;;;;;;;5029562;28;19921;-59
2022/08/20 02:53:50;;;;;;;;;;;;;;;;;;4994553;28;19931;-60
2022/08/20 02:56:15;;;;;;;;;;;;;;;;;;5029062;28;19932;-58
2022/08/20 02:58:41;;;;;;;;;;;;;;;;;;4995396;28;19925;-59
2022/08/20 03:01:06;;;;;;;;;;;;;;;;;;4999798;28;19921;-59
2022/08/20 03:03:32;;;;;;;;;;;;;;;;;;4998068;28;19994;-60
2022/08/20 03:05:57;;;;;;;;;;;;;;;;;;4996291;28;19921;-60
2022/08/20 03:08:25;;;;;;;;;;;;;;;;;;4995647;28;19952;-60
2022/08/20 03:10:51;;;;;;;;;;;;;;;;;;5029087;28;19923;-60
2022/08/20 03:13:17;;;;;;;;;;;;;;;;;;5013569;28;19922;-60
2022/08/20 03:15:42;;;;;;;;;;;;;;;;;;5028417;28;21902;-60
2022/08/20 03:18:07;;;;;;;;;;;;;;;;;;4984479;28;20592;-60
2022/08/20 03:20:33;;;;;;;;;;;;;;;;;;4996962;28;20060;-60
2022/08/20 03:22:58;;;;;;;;;;;;;;;;;;5027710;28;19975;-60
2022/08/20 03:25:24;;;;;;;;;;;;;;;;;;4997730;28;19921;-59
2022/08/20 03:27:49;;;;;;;;;;;;;;;;;;4996450;28;19921;-60
2022/08/20 03:30:16;;;;;;;;;;;;;;;;;;4995921;28;19929;-60
2022/08/20 03:32:46;;;;;;;;;;;;;;;;;;4996162;28;19976;-60
2022/08/20 03:35:11;;;;;;;;;;;;;;;;;;4992829;28;19922;-60
2022/08/20 03:37:37;;;;;;;;;;;;;;;;;;4993498;28;19921;-60
2022/08/20 03:40:02;;;;;;;;;;;;;;;;;;4993724;28;19925;-60
2022/08/20 03:42:30;;;;;;;;;;;;;;;;;;5000011;28;19924;-60
2022/08/20 03:44:55;;;;;;;;;;;;;;;;;;5024707;28;19932;-60
2022/08/20 03:47:25;;;;;;;;;;;;;;;;;;4996625;28;19921;-59
2022/08/20 03:49:51;;;;;;;;;;;;;;;;;;4996916;28;19937;-59
2022/08/20 03:52:16;;;;;;;;;;;;;;;;;;4994395;28;19921;-59
2022/08/20 03:54:44;;;;;;;;;;;;;;;;;;4994451;28;20580;-60
2022/08/20 03:57:09;;;;;;;;;;;;;;;;;;4995502;28;19917;-60
2022/08/20 03:59:35;;;;;;;;;;;;;;;;;;4994062;28;19928;-60
2022/08/20 04:02:00;;;;;;;;;;;;;;;;;;4997165;28;19918;-60
2022/08/20 04:04:26;;;;;;;;;;;;;;;;;;4999350;28;19998;-60
2022/08/20 04:06:51;;;;;;;;;;;;;;;;;;4996564;28;20008;-60
2022/08/20 04:09:19;;;;;;;;;;;;;;;;;;4992092;28;19928;-60
2022/08/20 04:11:44;;;;;;;;;;;;;;;;;;4998719;28;19921;-60
2022/08/20 04:14:10;;;;;;;;;;;;;;;;;;5026140;28;20285;-60
2022/08/20 04:16:36;;;;;;;;;;;;;;;;;;4993447;28;19964;-61
2022/08/20 04:19:02;;;;;;;;;;;;;;;;;;5027762;28;20551;-59
2022/08/20 04:21:27;;;;;;;;;;;;;;;;;;4997012;28;20489;-59
2022/08/20 04:23:54;;;;;;;;;;;;;;;;;;5007701;28;19983;-61
2022/08/20 04:26:20;;;;;;;;;;;;;;;;;;4996389;28;20083;-60
2022/08/20 04:28:45;;;;;;;;;;;;;;;;;;4995615;28;21887;-59
2022/08/20 04:31:13;;;;;;;;;;;;;;;;;;4982052;28;19961;-61
2022/08/20 04:33:38;;;;;;;;;;;;;;;;;;4993941;28;19918;-60
2022/08/20 04:36:04;;;;;;;;;;;;;;;;;;5000038;28;19967;-59
2022/08/20 04:38:32;;;;;;;;;;;;;;;;;;4995102;28;19963;-60
2022/08/20 04:40:59;;;;;;;;;;;;;;;;;;4992420;28;19929;-61
2022/08/20 04:43:25;;;;;;;;;;;;;;;;;;4994076;28;19979;-59
2022/08/20 04:45:54;;;;;;;;;;;;;;;;;;4980962;28;20392;-61
2022/08/20 04:48:19;;;;;;;;;;;;;;;;;;4994599;28;20056;-60
2022/08/20 04:50:47;;;;;;;;;;;;;;;;;;4996017;28;19928;-60
2022/08/20 04:53:13;;;;;;;;;;;;;;;;;;4996067;28;19925;-59
2022/08/20 04:55:40;;;;;;;;;;;;;;;;;;4996104;28;19929;-60
2022/08/20 04:58:05;;;;;;;;;;;;;;;;;;4992692;28;19926;-60
2022/08/20 05:00:33;;;;;;;;;;;;;;;;;;4998111;28;20063;-59
2022/08/20 05:03:03;;;;;;;;;;;;;;;;;;4992869;28;19921;-60
2022/08/20 05:05:29;;;;;;;;;;;;;;;;;;5009387;28;19920;-60
2022/08/20 05:07:54;;;;;;;;;;;;;;;;;;4994220;28;20537;-59
2022/08/20 05:10:22;;;;;;;;;;;;;;;;;;4994034;28;19928;-60
2022/08/20 05:12:50;;;;;;;;;;;;;;;;;;4999398;28;20987;-60
2022/08/20 05:15:15;;;;;;;;;;;;;;;;;;5014639;28;19968;-60
2022/08/20 05:17:40;;;;;;;;;;;;;;;;;;4999769;28;19955;-59
2022/08/20 05:20:06;;;;;;;;;;;;;;;;;;4990500;28;20112;-60
2022/08/20 05:22:32;;;;;;;;;;;;;;;;;;4994269;28;21924;-61
2022/08/20 05:25:00;;;;;;;;;;;;;;;;;;4995500;28;19921;-59
2022/08/20 05:27:26;;;;;;;;;;;;;;;;;;4998236;28;19936;-59
2022/08/20 05:29:54;;;;;;;;;;;;;;;;;;5029905;28;20954;-60
2022/08/20 05:32:19;;;;;;;;;;;;;;;;;;4995185;28;19924;-59
2022/08/20 05:34:45;;;;;;;;;;;;;;;;;;4993406;28;20588;-60
2022/08/20 05:37:11;;;;;;;;;;;;;;;;;;4994875;28;19928;-59
2022/08/20 05:39:39;;;;;;;;;;;;;;;;;;5025779;28;19925;-60
2022/08/20 05:42:06;;;;;;;;;;;;;;;;;;4994310;28;19956;-61
2022/08/20 05:44:36;;;;;;;;;;;;;;;;;;5005897;28;19921;-61
2022/08/20 05:47:03;;;;;;;;;;;;;;;;;;5003193;28;19921;-60
2022/08/20 05:49:28;;;;;;;;;;;;;;;;;;5003174;28;19921;-61
2022/08/20 05:51:54;;;;;;;;;;;;;;;;;;4995962;28;19925;-60
2022/08/20 05:54:20;;;;;;;;;;;;;;;;;;4992742;28;19921;-60
2022/08/20 05:56:45;;;;;;;;;;;;;;;;;;5016032;28;19931;-59
2022/08/20 05:59:12;;;;;;;;;;;;;;;;;;4991894;28;19917;-60
2022/08/20 06:01:38;;;;;;;;;;;;;;;;;;5027993;28;19917;-59
2022/08/20 06:06:48;;;;;;;;;;;;;;;;;;4994166;28;19933;-59
2022/08/20 06:09:13;;;;;;;;;;;;;;;;;;5026701;28;19925;-60
2022/08/20 06:11:38;;;;;;;;;;;;;;;;;;5002694;28;20770;-60
2022/08/20 06:14:06;;;;;;;;;;;;;;;;;;4993093;28;20803;-61
2022/08/20 06:16:32;;;;;;;;;;;;;;;;;;4997420;28;19921;-61
2022/08/20 06:18:57;;;;;;;;;;;;;;;;;;4999473;28;19921;-60
2022/08/20 06:21:23;;;;;;;;;;;;;;;;;;5029889;28;19927;-60
2022/08/20 06:23:51;;;;;;;;;;;;;;;;;;4996966;28;19917;-60
2022/08/20 06:26:18;;;;;;;;;;;;;;;;;;4997241;28;19948;-62
2022/08/20 06:28:46;;;;;;;;;;;;;;;;;;5000835;28;19932;-61
2022/08/20 06:31:14;;;;;;;;;;;;;;;;;;4995973;28;19929;-61
2022/08/20 06:33:41;;;;;;;;;;;;;;;;;;4993087;28;20000;-60
2022/08/20 06:36:07;;;;;;;;;;;;;;;;;;5026014;28;19924;-62
2022/08/20 06:38:33;;;;;;;;;;;;;;;;;;4995268;28;19917;-61
2022/08/20 06:41:03;;;;;;;;;;;;;;;;;;4996489;28;20472;-61
2022/08/20 06:43:29;;;;;;;;;;;;;;;;;;5000761;28;20684;-61
2022/08/20 06:45:56;;;;;;;;;;;;;;;;;;5001512;28;19922;-61
2022/08/20 06:48:21;;;;;;;;;;;;;;;;;;4997698;28;20394;-62
2022/08/20 06:50:49;;;;;;;;;;;;;;;;;;4988562;28;19917;-61
2022/08/20 06:53:15;;;;;;;;;;;;;;;;;;5028749;28;19948;-61
2022/08/20 06:55:40;;;;;;;;;;;;;;;;;;4988431;28;19921;-61
2022/08/20 06:58:08;;;;;;;;;;;;;;;;;;5002845;28;19932;-61
2022/08/20 07:00:33;;;;;;;;;;;;;;;;;;5001591;28;20709;-62
2022/08/20 07:03:02;;;;;;;;;;;;;;;;;;4995859;28;20000;-61
2022/08/20 07:05:27;;;;;;;;;;;;;;;;;;5001836;28;19953;-62
2022/08/20 07:07:52;;;;;;;;;;;;;;;;;;5002961;28;20044;-62
2022/08/20 07:10:18;;;;;;;;;;;;;;;;;;4997756;28;19928;-63
2022/08/20 07:12:49;;;;;;;;;;;;;;;;;;5028120;28;19925;-62
2022/08/20 07:15:14;;;;;;;;;;;;;;;;;;4998793;28;19982;-64
2022/08/20 07:17:42;;;;;;;;;;;;;;;;;;4995573;28;21125;-62
2022/08/20 07:20:08;;;;;;;;;;;;;;;;;;4997935;28;19917;-61
2022/08/20 07:22:36;;;;;;;;;;;;;;;;;;4995899;28;19921;-63
2022/08/20 07:25:04;;;;;;;;;;;;;;;;;;5000615;28;19929;-62
2022/08/20 07:27:31;;;;;;;;;;;;;;;;;;5000178;28;19922;-62
2022/08/20 07:32:43;;;;;;;;;;;;;;;;;;4997198;28;20308;-61
2022/08/20 07:35:08;;;;;;;;;;;;;;;;;;4996983;28;19928;-62
2022/08/20 07:37:34;;;;;;;;;;;;;;;;;;4985285;28;20486;-62
2022/08/20 07:40:02;;;;;;;;;;;;;;;;;;5027418;28;19949;-61
2022/08/20 07:42:30;;;;;;;;;;;;;;;;;;4995634;28;19921;-62
2022/08/20 07:44:57;;;;;;;;;;;;;;;;;;4997402;28;20556;-62
2022/08/20 07:47:25;;;;;;;;;;;;;;;;;;4995933;28;19961;-62
2022/08/20 07:49:50;;;;;;;;;;;;;;;;;;4995469;28;19928;-63
2022/08/20 07:52:16;;;;;;;;;;;;;;;;;;4992255;28;19968;-62
2022/08/20 07:54:42;;;;;;;;;;;;;;;;;;4993111;28;19917;-63
2022/08/20 07:57:10;;;;;;;;;;;;;;;;;;5001642;28;20410;-62
2022/08/20 07:59:36;;;;;;;;;;;;;;;;;;5012409;28;20021;-63
2022/08/20 08:02:01;;;;;;;;;;;;;;;;;;4991751;28;19921;-64
2022/08/20 08:04:26;;;;;;;;;;;;;;;;;;5012571;28;19921;-64
2022/08/20 08:06:56;;;;;;;;;;;;;;;;;;4996873;28;19921;-63
2022/08/20 08:09:24;;;;;;;;;;;;;;;;;;5010143;28;19925;-62
2022/08/20 08:11:49;;;;;;;;;;;;;;;;;;5019583;28;19928;-64
2022/08/20 08:14:15;;;;;;;;;;;;;;;;;;4996455;28;20015;-62
2022/08/20 08:16:44;;;;;;;;;;;;;;;;;;5002414;28;19998;-64
2022/08/20 08:19:10;;;;;;;;;;;;;;;;;;4999706;28;19918;-62
2022/08/20 08:21:38;;;;;;;;;;;;;;;;;;4995672;28;19921;-62
2022/08/20 08:24:06;;;;;;;;;;;;;;;;;;4996159;28;19945;-62
2022/08/20 08:26:31;;;;;;;;;;;;;;;;;;4996557;28;21872;-63
2022/08/20 08:28:59;;;;;;;;;;;;;;;;;;5013233;28;19964;-63
2022/08/20 08:31:25;;;;;;;;;;;;;;;;;;4995655;28;19937;-65
2022/08/20 08:33:50;;;;;;;;;;;;;;;;;;5029789;28;19925;-63
2022/08/20 08:36:15;;;;;;;;;;;;;;;;;;5003110;28;19918;-63
2022/08/20 08:38:46;;;;;;;;;;;;;;;;;;4994317;28;19917;-63
2022/08/20 08:41:12;;;;;;;;;;;;;;;;;;4999235;28;19951;-63
2022/08/20 08:43:37;;;;;;;;;;;;;;;;;;5027761;28;19929;-62
2022/08/20 08:46:03;;;;;;;;;;;;;;;;;;4997900;28;19968;-62
2022/08/20 08:48:28;;;;;;;;;;;;;;;;;;4998990;28;21860;-62
2022/08/20 08:50:58;;;;;;;;;;;;;;;;;;4997166;28;20063;-63
2022/08/20 08:53:26;;;;;;;;;;;;;;;;;;4995110;28;19974;-65
2022/08/20 08:55:51;;;;;;;;;;;;;;;;;;4999324;28;19928;-65
2022/08/20 08:58:16;;;;;;;;;;;;;;;;;;5021305;28;20462;-64
2022/08/20 09:00:43;;;;;;;;;;;;;;;;;;4996334;28;19921;-65
2022/08/20 09:03:08;;;;;;;;;;;;;;;;;;4996115;28;19921;-65
2022/08/20 09:05:34;;;;;;;;;;;;;;;;;;5013644;28;21011;-65
2022/08/20 09:07:59;;;;;;;;;;;;;;;;;;4996123;28;19951;-66
2022/08/20 09:10:28;;;;;;;;;;;;;;;;;;4999134;28;19917;-68
2022/08/20 09:12:53;;;;;;;;;;;;;;;;;;5003561;28;19925;-66
2022/08/20 09:15:21;;;;;;;;;;;;;;;;;;4996263;28;20071;-66
2022/08/20 09:17:49;;;;;;;;;;;;;;;;;;4996900;28;19922;-65
2022/08/20 09:20:17;;;;;;;;;;;;;;;;;;4997683;28;19921;-64
2022/08/20 09:22:42;;;;;;;;;;;;;;;;;;4987363;28;19932;-64
2022/08/20 09:25:10;;;;;;;;;;;;;;;;;;5031024;28;19973;-63
2022/08/20 09:27:36;;;;;;;;;;;;;;;;;;5012509;28;20377;-65
2022/08/20 09:30:01;;;;;;;;;;;;;;;;;;4998852;28;19936;-65
2022/08/20 09:32:26;;;;;;;;;;;;;;;;;;4997801;28;19917;-64
2022/08/20 09:34:55;;;;;;;;;;;;;;;;;;5028958;28;20599;-66
2022/08/20 09:37:20;;;;;;;;;;;;;;;;;;4998934;28;19928;-65
2022/08/20 09:39:45;;;;;;;;;;;;;;;;;;4997942;28;19925;-65
2022/08/20 09:42:11;;;;;;;;;;;;;;;;;;5013304;28;20584;-66
2022/08/20 09:44:36;;;;;;;;;;;;;;;;;;5002854;28;19960;-65
2022/08/20 09:47:01;;;;;;;;;;;;;;;;;;4996951;28;19921;-64
2022/08/20 09:49:30;;;;;;;;;;;;;;;;;;4995457;28;19925;-64
2022/08/20 09:51:55;;;;;;;;;;;;;;;;;;4996681;28;19917;-64
2022/08/20 09:54:21;;;;;;;;;;;;;;;;;;4995733;28;20660;-65
2022/08/20 09:56:49;;;;;;;;;;;;;;;;;;4998186;28;19992;-66
2022/08/20 09:59:14;;;;;;;;;;;;;;;;;;4996747;28;20093;-66
2022/08/20 10:01:39;;;;;;;;;;;;;;;;;;5004509;28;20624;-66
2022/08/20 10:04:08;;;;;;;;;;;;;;;;;;4998292;28;22132;-68
2022/08/20 10:06:35;;;;;;;;;;;;;;;;;;4999368;28;19924;-66
2022/08/20 10:09:05;;;;;;;;;;;;;;;;;;5014949;28;19959;-65
2022/08/20 10:11:31;;;;;;;;;;;;;;;;;;4996382;28;19922;-65
2022/08/20 10:13:57;;;;;;;;;;;;;;;;;;4998504;28;19972;-67
2022/08/20 10:16:22;;;;;;;;;;;;;;;;;;4999349;28;19980;-65
2022/08/20 10:18:48;;;;;;;;;;;;;;;;;;4988876;28;19925;-68
2022/08/20 10:21:15;;;;;;;;;;;;;;;;;;4998284;28;20003;-68
2022/08/20 10:23:41;;;;;;;;;;;;;;;;;;5000419;28;19921;-68
2022/08/20 10:26:07;;;;;;;;;;;;;;;;;;5001377;28;19955;-69
2022/08/20 10:28:33;;;;;;;;;;;;;;;;;;5001035;28;19922;-69
2022/08/20 10:30:59;;;;;;;;;;;;;;;;;;5000722;28;19936;-67
2022/08/20 10:33:24;;;;;;;;;;;;;;;;;;5000568;28;20037;-67
2022/08/20 10:35:50;;;;;;;;;;;;;;;;;;5001293;28;20403;-67
2022/08/20 10:38:15;;;;;;;;;;;;;;;;;;5007729;28;19921;-68
2022/08/20 10:40:40;;;;;;;;;;;;;;;;;;5004837;28;19943;-66
2022/08/20 10:43:06;;;;;;;;;;;;;;;;;;5000633;28;20411;-66
2022/08/20 10:45:34;;;;;;;;;;;;;;;;;;5016350;28;20831;-68
2022/08/20 10:47:59;;;;;;;;;;;;;;;;;;4998278;28;19943;-67
2022/08/20 10:50:24;;;;;;;;;;;;;;;;;;5031622;28;20400;-66
2022/08/20 10:52:50;;;;;;;;;;;;;;;;;;5033013;28;19917;-70
2022/08/20 10:55:15;;;;;;;;;;;;;;;;;;4998028;28;19979;-65
2022/08/20 10:57:43;;;;;;;;;;;;;;;;;;4999946;28;19921;-64
2022/08/20 11:00:09;;;;;;;;;;;;;;;;;;4999337;28;19917;-66
2022/08/20 11:02:34;;;;;;;;;;;;;;;;;;5015492;28;20495;-66
2022/08/20 11:05:03;;;;;;;;;;;;;;;;;;5001609;28;20645;-66
2022/08/20 11:07:31;;;;;;;;;;;;;;;;;;5000434;28;20913;-66
2022/08/20 11:09:57;;;;;;;;;;;;;;;;;;5000555;28;19925;-67
2022/08/20 11:12:22;;;;;;;;;;;;;;;;;;5031792;28;20875;-66
2022/08/20 11:14:48;;;;;;;;;;;;;;;;;;4995974;28;20024;-68
2022/08/20 11:17:16;;;;;;;;;;;;;;;;;;5001968;28;19925;-66
2022/08/20 11:19:44;;;;;;;;;;;;;;;;;;5000709;28;19921;-66
2022/08/20 11:22:12;;;;;;;;;;;;;;;;;;5006561;28;19975;-67
2022/08/20 11:24:37;;;;;;;;;;;;;;;;;;5030414;28;19922;-67
2022/08/20 11:27:02;;;;;;;;;;;;;;;;;;4996044;28;19921;-67
2022/08/20 11:29:27;;;;;;;;;;;;;;;;;;4999967;28;19976;-65
2022/08/20 11:31:53;;;;;;;;;;;;;;;;;;4993949;28;19933;-64
2022/08/20 11:34:19;;;;;;;;;;;;;;;;;;4992663;28;20430;-67
2022/08/20 11:36:44;;;;;;;;;;;;;;;;;;4996714;28;19921;-67
2022/08/20 11:39:12;;;;;;;;;;;;;;;;;;5009477;28;19921;-68
2022/08/20 11:41:37;;;;;;;;;;;;;;;;;;4988874;28;19964;-66
2022/08/20 11:44:03;;;;;;;;;;;;;;;;;;5025939;28;19925;-67
2022/08/20 11:46:31;;;;;;;;;;;;;;;;;;4982836;28;19925;-68
2022/08/20 11:48:59;;;;;;;;;;;;;;;;;;4996220;28;21071;-67
2022/08/20 11:51:24;;;;;;;;;;;;;;;;;;4997569;28;19975;-68
2022/08/20 11:53:49;;;;;;;;;;;;;;;;;;4993316;28;19917;-67
2022/08/20 11:56:16;;;;;;;;;;;;;;;;;;4995070;28;20266;-65
2022/08/20 11:58:42;;;;;;;;;;;;;;;;;;4996588;28;19959;-66
2022/08/20 12:01:07;;;;;;;;;;;;;;;;;;5025922;28;20358;-66
2022/08/20 12:03:35;;;;;;;;;;;;;;;;;;4994089;28;20083;-68
2022/08/20 12:06:03;;;;;;;;;;;;;;;;;;5029995;28;20553;-68
2022/08/20 12:08:28;;;;;;;;;;;;;;;;;;4996009;28;20289;-66
2022/08/20 12:10:54;;;;;;;;;;;;;;;;;;5000976;28;19921;-67
2022/08/20 12:13:19;;;;;;;;;;;;;;;;;;4995795;28;20424;-67
2022/08/20 12:15:49;;;;;;;;;;;;;;;;;;5009381;28;19995;-67
2022/08/20 12:18:14;;;;;;;;;;;;;;;;;;4998619;28;19925;-68
2022/08/20 12:20:41;;;;;;;;;;;;;;;;;;4997484;28;19921;-66
2022/08/20 12:23:07;;;;;;;;;;;;;;;;;;5012943;28;19925;-67
2022/08/20 12:25:32;;;;;;;;;;;;;;;;;;5001849;28;19992;-67
2022/08/20 12:28:15;;;;;;;;;;;;;;;;;;4985058;28;22029;-68
2022/08/20 12:30:41;;;;;;;;;;;;;;;;;;4993086;28;20396;-70
2022/08/20 12:33:06;;;;;;;;;;;;;;;;;;4984199;28;19960;-68
2022/08/20 12:35:32;;;;;;;;;;;;;;;;;;4997856;28;20393;-71
2022/08/20 12:37:58;;;;;;;;;;;;;;;;;;4995318;28;19948;-68
2022/08/20 12:40:23;;;;;;;;;;;;;;;;;;4997310;28;19917;-67
2022/08/20 12:42:49;;;;;;;;;;;;;;;;;;4996325;28;21796;-68
2022/08/20 12:45:14;;;;;;;;;;;;;;;;;;4993530;28;19921;-67
2022/08/20 12:47:42;;;;;;;;;;;;;;;;;;4993944;28;19921;-69
2022/08/20 12:50:08;;;;;;;;;;;;;;;;;;4984585;28;19921;-66
2022/08/20 12:52:38;;;;;;;;;;;;;;;;;;4992256;28;19917;-66
2022/08/20 12:55:06;;;;;;;;;;;;;;;;;;5001001;28;19994;-66
2022/08/20 12:57:31;;;;;;;;;;;;;;;;;;4998270;28;19921;-67
2022/08/20 12:59:59;;;;;;;;;;;;;;;;;;4991022;28;20467;-67
2022/08/20 13:02:25;;;;;;;;;;;;;;;;;;4992267;28;20498;-69
2022/08/20 13:04:50;;;;;;;;;;;;;;;;;;5010739;28;19922;-71
2022/08/20 13:07:16;;;;;;;;;;;;;;;;;;5026659;28;19948;-67
2022/08/20 13:09:42;;;;;;;;;;;;;;;;;;5024678;28;20743;-69
2022/08/20 13:12:07;;;;;;;;;;;;;;;;;;5011487;28;19917;-69
2022/08/20 13:14:32;;;;;;;;;;;;;;;;;;5003721;28;19925;-70
2022/08/20 13:16:58;;;;;;;;;;;;;;;;;;4994984;28;20878;-73
2022/08/20 13:19:25;;;;;;;;;;;;;;;;;;5008719;28;20548;-68
2022/08/20 13:21:51;;;;;;;;;;;;;;;;;;4993090;28;19921;-67
2022/08/20 13:24:17;;;;;;;;;;;;;;;;;;4993769;28;19925;-68
2022/08/20 13:26:44;;;;;;;;;;;;;;;;;;5012164;28;20480;-67
2022/08/20 13:29:10;;;;;;;;;;;;;;;;;;4984504;28;20158;-69
2022/08/20 13:31:35;;;;;;;;;;;;;;;;;;4997627;28;19921;-66
2022/08/20 13:34:00;;;;;;;;;;;;;;;;;;5009091;28;20546;-67
2022/08/20 13:36:28;;;;;;;;;;;;;;;;;;4993144;28;19928;-68
2022/08/20 13:38:54;;;;;;;;;;;;;;;;;;4992917;28;19948;-66
2022/08/20 13:41:19;;;;;;;;;;;;;;;;;;4994698;28;19986;-66
2022/08/20 13:43:45;;;;;;;;;;;;;;;;;;4994078;28;19922;-66
2022/08/20 13:46:13;;;;;;;;;;;;;;;;;;4994803;28;20064;-67
2022/08/20 13:48:43;;;;;;;;;;;;;;;;;;4994013;28;19940;-66
2022/08/20 13:51:15;;;;;;;;;;;;;;;;;;4995057;28;19996;-67
2022/08/20 13:53:42;;;;;;;;;;;;;;;;;;5009204;28;19983;-68
2022/08/20 13:56:08;;;;;;;;;;;;;;;;;;4997994;28;20304;-67
2022/08/20 13:58:33;;;;;;;;;;;;;;;;;;4996988;28;20498;-67
2022/08/20 14:00:59;;;;;;;;;;;;;;;;;;4995376;28;19921;-72
2022/08/20 14:03:24;;;;;;;;;;;;;;;;;;4993726;28;19921;-70
2022/08/20 14:05:50;;;;;;;;;;;;;;;;;;4998619;28;20357;-70
2022/08/20 14:08:16;;;;;;;;;;;;;;;;;;4997799;28;21867;-67
2022/08/20 14:10:45;;;;;;;;;;;;;;;;;;4986350;28;19968;-68
2022/08/20 14:13:12;;;;;;;;;;;;;;;;;;5000592;28;19948;-72
2022/08/20 14:15:38;;;;;;;;;;;;;;;;;;4996412;28;20071;-68
2022/08/20 14:18:06;;;;;;;;;;;;;;;;;;4999859;28;19918;-66
2022/08/20 14:20:33;;;;;;;;;;;;;;;;;;4998003;28;19948;-68
2022/08/20 14:22:59;;;;;;;;;;;;;;;;;;5028899;28;19933;-68
2022/08/20 14:25:24;;;;;;;;;;;;;;;;;;4996701;28;19957;-67
2022/08/20 14:27:53;;;;;;;;;;;;;;;;;;4998875;28;20012;-65
2022/08/20 14:30:18;;;;;;;;;;;;;;;;;;4979382;28;19968;-65
2022/08/20 14:32:44;;;;;;;;;;;;;;;;;;4997669;28;20134;-66
2022/08/20 14:35:09;;;;;;;;;;;;;;;;;;5013836;28;19936;-66
2022/08/20 14:37:37;;;;;;;;;;;;;;;;;;4990334;28;19972;-64
2022/08/20 14:40:03;;;;;;;;;;;;;;;;;;5000235;28;19925;-66
2022/08/20 14:42:28;;;;;;;;;;;;;;;;;;5010694;28;20003;-69
2022/08/20 14:44:54;;;;;;;;;;;;;;;;;;5002360;28;19994;-72
2022/08/20 14:47:19;;;;;;;;;;;;;;;;;;4997889;28;20632;-75
2022/08/20 14:49:47;;;;;;;;;;;;;;;;;;5004317;28;20319;-68
2022/08/20 14:52:13;;;;;;;;;;;;;;;;;;4997590;28;20067;-66
2022/08/20 14:54:39;;;;;;;;;;;;;;;;;;5007651;28;19972;-69
2022/08/20 14:57:05;;;;;;;;;;;;;;;;;;4999714;28;19956;-69
2022/08/20 14:59:30;;;;;;;;;;;;;;;;;;5000901;28;20024;-66
2022/08/20 15:01:55;;;;;;;;;;;;;;;;;;4999433;28;19924;-66
2022/08/20 15:04:26;;;;;;;;;;;;;;;;;;4996273;28;19940;-70
2022/08/20 15:06:54;;;;;;;;;;;;;;;;;;4997428;28;20353;-66
2022/08/20 15:09:20;;;;;;;;;;;;;;;;;;4984871;28;19924;-66
2022/08/20 15:11:45;;;;;;;;;;;;;;;;;;4997456;28;19972;-66
2022/08/20 15:14:13;;;;;;;;;;;;;;;;;;5027273;28;19953;-65
2022/08/20 15:16:38;;;;;;;;;;;;;;;;;;5003078;28;19924;-67
2022/08/20 15:19:12;;;;;;;;;;;;;;;;;;4993759;28;19949;-65
2022/08/20 15:21:47;;;;;;;;;;;;;;;;;;4983834;28;19921;-69
2022/08/20 15:24:14;;;;;;;;;;;;;;;;;;5009149;28;19921;-68
2022/08/20 15:26:40;;;;;;;;;;;;;;;;;;4996799;28;19921;-67
2022/08/20 15:29:10;;;;;;;;;;;;;;;;;;4997484;28;19936;-64
2022/08/20 15:31:35;;;;;;;;;;;;;;;;;;4997066;28;20034;-71
2022/08/20 15:34:03;;;;;;;;;;;;;;;;;;4993896;28;20028;-67
2022/08/20 15:36:31;;;;;;;;;;;;;;;;;;4993300;28;19921;-66
2022/08/20 15:38:59;;;;;;;;;;;;;;;;;;4984936;28;19924;-69
2022/08/20 15:41:29;;;;;;;;;;;;;;;;;;5004716;28;20378;-68
2022/08/20 15:43:54;;;;;;;;;;;;;;;;;;4995353;28;20352;-66
2022/08/20 15:46:19;;;;;;;;;;;;;;;;;;4993129;28;19936;-66
2022/08/20 15:48:45;;;;;;;;;;;;;;;;;;4993301;28;19992;-66
2022/08/20 15:51:10;;;;;;;;;;;;;;;;;;4996792;28;20992;-67
2022/08/20 15:53:36;;;;;;;;;;;;;;;;;;5000513;28;19971;-66
2022/08/20 15:56:01;;;;;;;;;;;;;;;;;;4983857;28;19995;-67
2022/08/20 15:58:29;;;;;;;;;;;;;;;;;;5025625;28;19917;-65
2022/08/20 16:00:54;;;;;;;;;;;;;;;;;;4995835;28;20000;-67
2022/08/20 16:03:19;;;;;;;;;;;;;;;;;;4992668;28;20043;-65
2022/08/20 16:05:45;;;;;;;;;;;;;;;;;;5028577;28;19925;-65
2022/08/20 16:08:10;;;;;;;;;;;;;;;;;;4996974;28;19928;-66
2022/08/20 16:10:36;;;;;;;;;;;;;;;;;;4993456;28;19920;-64
2022/08/20 16:13:04;;;;;;;;;;;;;;;;;;4995946;28;20048;-65
2022/08/20 16:15:29;;;;;;;;;;;;;;;;;;4989013;28;20970;-65
2022/08/20 16:17:56;;;;;;;;;;;;;;;;;;5016448;28;19987;-66
2022/08/20 16:20:23;;;;;;;;;;;;;;;;;;4995440;28;20392;-65
2022/08/20 16:22:48;;;;;;;;;;;;;;;;;;4993244;28;19976;-66
2022/08/20 16:25:16;;;;;;;;;;;;;;;;;;4991957;28;20062;-71
2022/08/20 16:27:42;;;;;;;;;;;;;;;;;;4994348;28;19921;-65
2022/08/20 16:30:07;;;;;;;;;;;;;;;;;;4981726;28;20663;-64
2022/08/20 16:32:33;;;;;;;;;;;;;;;;;;4994740;28;19921;-63
2022/08/20 16:35:03;;;;;;;;;;;;;;;;;;4994401;28;19925;-66
2022/08/20 16:37:31;;;;;;;;;;;;;;;;;;4983414;28;19995;-66
2022/08/20 16:39:59;;;;;;;;;;;;;;;;;;4994502;28;19917;-65
2022/08/20 16:42:33;;;;;;;;;;;;;;;;;;4994159;28;20839;-66
2022/08/20 16:44:58;;;;;;;;;;;;;;;;;;5026739;28;19921;-65